Cumberland City, Tennessee
Current Conditions -  °F | °C
As of 11:52 AM on Wednesday 26 Nov 2014 (Local Time) from KCKV Reporting Station
Clear Clear  
Wind Chill: 44°   Ceiling: Unl
Heat Index: 44°   Visibility: 10mi
Dew Point: 26°   Wind: 3mph
Humidity: 49%   Direction: 100°E
Pressure: 30.08"   Gusts: NA
Location:  36.39°N, 87.64°W
Report Text: KCKV 261752Z AUTO 10003KT 10SM CLR 07/M03 A3008 RMK AO2 PRESFR SLP188 I6001 T00671033 10067 21050 58023
Loading
Personal Weather Stations






























Interactive Weather Map New forecast layout! Learn more

10-Day Weather Forecast

Advertisements
Track Severe Weather on mobile